createdAt,value
2022-07-29T00:03:15.939Z,4118.3
2022-07-29T00:08:55.023Z,4116.5
2022-07-29T00:14:32.445Z,4116.6
2022-07-29T00:20:07.295Z,4115.3
2022-07-29T00:25:42.169Z,4116.5
2022-07-29T00:31:18.292Z,4115.5
2022-07-29T00:36:53.376Z,4114.6
2022-07-29T00:42:28.183Z,4115.3
2022-07-29T00:48:03.849Z,4116
2022-07-29T00:53:38.559Z,4116
2022-07-29T00:59:13.369Z,4114.5
2022-07-29T01:04:48.163Z,4115.8
2022-07-29T01:10:22.926Z,4112.5
2022-07-29T01:15:58.905Z,4114
2022-07-29T01:21:33.725Z,4112.3
2022-07-29T01:27:09.813Z,4116.6
2022-07-29T01:32:44.551Z,4113.3
2022-07-29T01:38:21.142Z,4114.3
2022-07-29T01:43:55.898Z,4114
2022-07-29T01:49:31.463Z,4113.5
2022-07-29T01:55:06.301Z,4113.1
2022-07-29T02:00:44.992Z,4110.8
2022-07-29T02:06:19.860Z,4110.5
2022-07-29T02:11:56.263Z,4113
2022-07-29T02:17:52.922Z,4109.4
2022-07-29T02:23:25.606Z,4108.1
2022-07-29T02:29:00.367Z,4107.6
2022-07-29T02:34:35.223Z,4108.9
2022-07-29T02:40:10.316Z,4107.6
2022-07-29T02:45:45.956Z,4109.3
2022-07-29T02:51:46.186Z,4107.3
2022-07-29T02:57:22.143Z,4109.8
2022-07-29T03:02:56.822Z,4106.4
2022-07-29T03:08:31.679Z,4105.8
2022-07-29T03:14:06.304Z,4107.3
2022-07-29T03:19:41.173Z,4104.8
2022-07-29T03:25:16.663Z,4107.4
2022-07-29T03:30:52.719Z,4106.6
2022-07-29T03:36:27.473Z,4104.4
2022-07-29T03:42:02.351Z,4104.1
2022-07-29T03:48:02.011Z,4105.8
2022-07-29T03:53:36.937Z,4104.3
2022-07-29T03:59:11.847Z,4105.4
2022-07-29T04:04:46.737Z,4103.6
2022-07-29T04:10:36.369Z,4102.9
2022-07-29T04:16:34.330Z,4100.9
2022-07-29T04:22:07.295Z,4104.3
2022-07-29T04:27:43.010Z,4098.2
2022-07-29T04:33:17.788Z,4103.4
2022-07-29T04:38:52.996Z,4102.7
2022-07-29T04:44:42.929Z,4102.1
2022-07-29T04:50:18.243Z,4102.4
2022-07-29T04:55:52.978Z,4099.4
2022-07-29T05:01:28.429Z,4099.9
2022-07-29T05:07:03.336Z,4100.7
2022-07-29T05:12:38.201Z,4101.1
2022-07-29T05:18:34.823Z,4097.4
2022-07-29T05:24:07.697Z,4097.7
2022-07-29T05:29:46.806Z,4102.4
2022-07-29T05:35:22.794Z,4100.9
2022-07-29T05:40:57.835Z,4098.4
2022-07-29T05:46:34.996Z,4098.9
2022-07-29T05:52:10.893Z,4099.2
2022-07-29T05:57:45.873Z,4098.6
2022-07-29T06:03:20.750Z,4096.9
2022-07-29T06:08:55.604Z,4097.9
2022-07-29T06:14:30.554Z,4093.9
2022-07-29T06:20:05.165Z,4096.4
2022-07-29T06:25:41.079Z,4097
2022-07-29T06:31:16.910Z,4097
2022-07-29T06:36:56.808Z,4095.9
2022-07-29T06:42:31.504Z,4094.2
2022-07-29T06:48:06.457Z,4096.4
2022-07-29T06:54:04.762Z,4101.6
2022-07-29T06:59:40.028Z,4094.7
2022-07-29T07:05:14.688Z,4096.4
2022-07-29T07:10:49.546Z,4095.2
2022-07-29T07:16:46.834Z,4093
2022-07-29T07:22:20.731Z,4095.2
2022-07-29T07:27:56.573Z,4100.1
2022-07-29T07:33:31.567Z,4101.7
2022-07-29T07:39:06.685Z,4109.3
2022-07-29T07:45:17.660Z,4120
2022-07-29T07:50:56.944Z,4115.1
2022-07-29T07:56:36.314Z,4117.7
2022-07-29T08:02:13.350Z,4119.3
2022-07-29T08:07:48.506Z,4113.6
2022-07-29T08:13:23.515Z,4120.8
2022-07-29T08:19:21.294Z,4138.8
2022-07-29T08:24:56.517Z,4145.5
2022-07-29T08:30:31.483Z,4143.1
2022-07-29T08:36:07.106Z,4146.6
2022-07-29T08:41:59.740Z,4152.3
2022-07-29T08:47:37.976Z,4217.3
2022-07-29T08:53:14.053Z,4214.8
2022-07-29T08:58:57.370Z,4156
2022-07-29T09:04:32.249Z,4166.1
2022-07-29T09:10:08.240Z,4164.2
2022-07-29T09:15:43.409Z,4210.6
2022-07-29T09:21:18.483Z,4195.7
2022-07-29T09:26:56.655Z,4222.8
2022-07-29T09:32:32.011Z,4208.6
2022-07-29T09:38:07.181Z,4177.8
2022-07-29T09:43:42.960Z,4164.2
2022-07-29T09:49:19.694Z,4162
2022-07-29T09:54:54.578Z,4152.8
2022-07-29T10:00:30.042Z,4157.7
2022-07-29T10:06:05.061Z,4152.2
2022-07-29T10:11:50.837Z,4171.1
2022-07-29T10:17:47.702Z,4177.8
2022-07-29T10:23:20.504Z,4177.3
2022-07-29T10:28:56.128Z,4175.8
2022-07-29T10:34:31.978Z,4189.3
2022-07-29T10:40:08.394Z,4197.7
2022-07-29T10:45:53.210Z,4197.9
2022-07-29T10:51:29.205Z,4188.2
2022-07-29T10:57:07.978Z,4190.9
2022-07-29T12:12:46.478Z,4212
2022-07-29T12:18:26.898Z,4209.4
2022-07-29T12:24:10.700Z,4203.2
2022-07-29T12:29:50.427Z,4204.2
2022-07-29T12:35:25.895Z,4199.7
2022-07-29T12:41:00.814Z,4205.6
2022-07-29T12:46:36.597Z,4207.9
2022-07-29T12:52:12.708Z,4202.9
2022-07-29T12:57:47.817Z,4216.1
2022-07-29T13:03:27.890Z,4202.7
2022-07-29T13:09:02.621Z,4215
2022-07-29T13:14:37.308Z,4214.6
2022-07-29T13:20:13.334Z,4209.4
2022-07-29T13:25:49.300Z,4208.3
2022-07-29T13:31:24.987Z,4221.2
2022-07-29T13:37:00.852Z,4215.5
2022-07-29T13:42:35.909Z,4207.1
2022-07-29T13:48:10.735Z,4209.8
2022-07-29T13:53:45.637Z,4223.5
2022-07-29T13:59:20.364Z,4217.8
2022-07-29T14:04:57.148Z,4211.6
2022-07-29T14:10:32.119Z,4211.5
2022-07-29T14:16:29.604Z,4215.8
2022-07-29T14:22:05.389Z,4213
2022-07-29T14:27:43.352Z,4212.8
2022-07-29T14:33:19.282Z,4223.7
2022-07-29T14:38:54.201Z,4218.8
2022-07-29T14:44:29.930Z,4215.6
2022-07-29T14:50:05.991Z,4216.8
2022-07-29T14:55:40.923Z,4216
2022-07-29T15:01:16.832Z,4225.2
2022-07-29T15:06:52.210Z,4223.2
2022-07-29T15:12:27.056Z,4226.2
2022-07-29T15:18:02.978Z,4229
2022-07-29T15:23:38.208Z,4216.8
2022-07-29T15:29:13.001Z,4216.6
2022-07-29T15:34:47.730Z,4219
2022-07-29T15:40:22.999Z,4228.7
2022-07-29T15:45:58.671Z,4222.5
2022-07-29T15:51:33.575Z,4229
2022-07-29T15:57:08.452Z,4217.8
2022-07-29T16:02:51.443Z,4218.2
2022-07-29T16:08:26.311Z,4217.5
2022-07-29T16:14:02.031Z,4222.3
2022-07-29T16:19:39.050Z,4226.5
2022-07-29T16:25:13.821Z,4218.2
2022-07-29T16:30:48.526Z,4225.7
2022-07-29T16:36:23.424Z,4214
2022-07-29T16:42:06.254Z,4224.2
2022-07-29T16:47:42.380Z,4221.2
2022-07-29T16:53:18.524Z,4215.1
2022-07-29T16:58:53.238Z,4208.3
2022-07-29T17:04:28.907Z,4211.6
2022-07-29T17:10:05.988Z,4209.1
2022-07-29T17:15:40.889Z,4204.9
2022-07-29T17:21:15.772Z,4205.3
2022-07-29T17:26:51.108Z,4207.6
2022-07-29T17:32:26.032Z,4206.4
2022-07-29T17:38:01.116Z,4206.6
2022-07-29T17:43:40.575Z,4203.1
2022-07-29T17:49:17.485Z,4208.3
2022-07-29T17:54:53.597Z,4207.1
2022-07-29T18:00:29.568Z,4207.4
2022-07-29T18:06:04.572Z,4204.6
2022-07-29T18:11:46.820Z,4204.9
2022-07-29T18:17:58.948Z,4201.6
2022-07-29T18:23:31.811Z,4202.9
2022-07-29T18:29:11.724Z,4201.4
2022-07-29T18:34:47.413Z,4201.1
2022-07-29T18:40:22.369Z,4200.7
2022-07-29T18:45:59.182Z,4199.2
2022-07-29T18:51:33.815Z,4201.2
2022-07-29T18:57:58.346Z,4200.1
2022-07-29T19:03:33.457Z,4200.9
2022-07-29T19:09:08.248Z,4200.9
2022-07-29T19:14:43.988Z,4197.5
2022-07-29T19:20:18.804Z,4199.4
2022-07-29T19:25:55.123Z,4199.4
2022-07-29T19:31:31.645Z,4198.2
2022-07-29T19:37:06.669Z,4199.9
2022-07-29T19:42:41.842Z,4196.7
2022-07-29T19:48:16.603Z,4198.7
2022-07-29T19:53:51.606Z,4195.7
2022-07-29T19:59:30.383Z,4197.9
2022-07-29T20:05:05.453Z,4195.9
2022-07-29T20:10:40.345Z,4196.4
2022-07-29T20:16:36.991Z,4194.4
2022-07-29T20:22:09.633Z,4194.7
2022-07-29T20:27:44.299Z,4194.2
2022-07-29T20:33:19.220Z,4193.7
2022-07-29T20:38:53.815Z,4193
2022-07-29T20:44:28.823Z,4194.4
2022-07-29T20:50:03.674Z,4195
2022-07-29T20:55:38.316Z,4193.7
2022-07-29T21:01:14.942Z,4193.9
2022-07-29T21:06:49.744Z,4191.4
2022-07-29T21:12:25.558Z,4192.7
2022-07-29T21:18:01.673Z,4193.5
2022-07-29T21:23:36.501Z,4192
2022-07-29T21:29:11.291Z,4188.5
2022-07-29T21:34:46.076Z,4189.2
2022-07-29T21:40:22.127Z,4189.7
2022-07-29T21:45:58.048Z,4189.3
2022-07-29T21:51:33.868Z,4192.4
2022-07-29T21:57:10.256Z,4191.2
2022-07-29T22:02:44.986Z,4187.8
2022-07-29T22:08:19.862Z,4188.8
2022-07-29T22:13:54.706Z,4190.3
2022-07-29T22:19:51.174Z,4184.7
2022-07-29T22:25:23.917Z,4188
2022-07-29T22:30:59.908Z,4188.7
2022-07-29T22:36:35.205Z,4189
2022-07-29T22:42:12.214Z,4187.3
2022-07-29T22:47:59.604Z,4184.7
2022-07-29T22:53:34.648Z,4184.3
2022-07-29T22:59:09.358Z,4184.5
2022-07-29T23:04:44.152Z,4184.8
2022-07-29T23:10:18.902Z,4184.5
2022-07-29T23:15:54.618Z,4183.5
2022-07-29T23:21:29.459Z,4185.7
2022-07-29T23:27:05.505Z,4184.3
2022-07-29T23:32:40.458Z,4183.6
2022-07-29T23:38:15.378Z,4185.2
2022-07-29T23:43:51.442Z,4182.5
2022-07-29T23:49:27.507Z,4183.3
2022-07-29T23:55:40.346Z,4182
